NGZ weather

CLOSED Alameda Naval Air Station
Alameda, California, United States

Public forecast

Using degrees Fahrenheit for public forecast. Weather courtesy of forecast.io.

METAR (pilot weather report)

Closest report is Metropolitan Oakland International Airport, 6.2 nm (11.5 km) SE. Retrieved 2019/03/23 08:29 UTC (7 minutes ago):

KOAK 230829Z 16009KT 10SM -RA FEW008 BKN014 OVC028 13/13 A3015 RMK AO2 P0003 T01330128 $

TAF (pilot weather forecast)

Closest forecast is Metropolitan Oakland International Airport, 6.2 nm (11.5 km) SE. Retrieved 2019/03/23 06:22 UTC (2 hours ago):

TAF KOAK 230520Z 2306/2412 14007KT 6SM -SHRA BKN020 BKN035 FM230900 26010KT P6SM VCSH SCT020 BKN040 FM231300 24010KT P6SM SCT020 BKN050 BKN100 FM231800 27010KT P6SM FEW020 SCT050 SCT100 FM240300 29005KT P6SM FEW050